Time;durP1;ratioP1;P1;durP2;ratioP2;P2;SDS_P1;SDS_P2;PMS_P1;PMS_P2;Temp;Humidity;BMP_temperature;BMP_pressure;BME280_temperature;BME280_humidity;BME280_pressure;Samples;Min_cycle;Max_cycle;Signal;HPM_P1;HPM_P2
2022/08/17 00:00:13;;;;;;;27.97;16.63;;;22.30;99.90;;;;;;4903598;29;20649;-73
2022/08/17 00:03:13;;;;;;;21.73;16.10;;;22.20;99.90;;;;;;4919286;29;20222;-74
2022/08/17 00:06:01;;;;;;;24.63;16.53;;;22.20;99.90;;;;;;4919690;29;20199;-73
2022/08/17 00:08:35;;;;;;;23.97;16.67;;;22.20;99.90;;;;;;4919746;29;20285;-72
2022/08/17 00:11:05;;;;;;;26.30;16.43;;;22.20;99.90;;;;;;4919703;29;20214;-72
2022/08/17 00:13:44;;;;;;;22.90;16.63;;;22.10;99.90;;;;;;4918587;29;20201;-74
2022/08/17 00:16:19;;;;;;;25.17;17.47;;;22.10;99.90;;;;;;4919301;29;20317;-73
2022/08/17 00:19:19;;;;;;;24.77;18.17;;;22.00;99.90;;;;;;4918348;29;20217;-74
2022/08/17 00:21:48;;;;;;;25.10;17.67;;;22.00;99.90;;;;;;4903512;29;20211;-73
2022/08/17 00:24:35;;;;;;;25.13;17.13;;;22.00;99.90;;;;;;4919405;29;20199;-72
2022/08/17 00:27:02;;;;;;;26.13;17.90;;;21.90;99.90;;;;;;4919163;29;20209;-73
2022/08/17 00:29:29;;;;;;;20.83;16.10;;;21.90;99.90;;;;;;4919198;29;20218;-72
2022/08/17 00:31:57;;;;;;;30.80;17.83;;;21.80;99.90;;;;;;4919395;29;20763;-72
2022/08/17 00:34:24;;;;;;;25.23;17.93;;;21.80;99.90;;;;;;4919229;29;20244;-73
2022/08/17 00:36:53;;;;;;;20.40;16.37;;;21.80;99.90;;;;;;4936001;29;20676;-73
2022/08/17 00:39:20;;;;;;;20.90;15.93;;;21.80;99.90;;;;;;4919628;29;20641;-73
2022/08/17 00:41:47;;;;;;;24.10;16.87;;;21.70;99.90;;;;;;4918669;29;20302;-73
2022/08/17 00:44:16;;;;;;;23.90;17.00;;;21.70;99.90;;;;;;4918817;29;20286;-74
2022/08/17 00:46:43;;;;;;;24.80;17.13;;;21.80;99.90;;;;;;4918679;29;20672;-72
2022/08/17 00:49:11;;;;;;;26.53;18.00;;;21.70;99.90;;;;;;4918948;29;20199;-72
2022/08/17 00:51:44;;;;;;;26.80;17.47;;;21.60;99.90;;;;;;4918627;29;20286;-72
2022/08/17 00:54:21;;;;;;;24.70;16.63;;;21.70;99.90;;;;;;4918334;29;20321;-74
2022/08/17 00:57:01;;;;;;;21.97;16.43;;;21.70;99.90;;;;;;4918892;29;20281;-73
2022/08/17 00:59:42;;;;;;;25.13;17.03;;;21.70;99.90;;;;;;4918794;29;20194;-73
2022/08/17 01:02:13;;;;;;;23.97;16.60;;;21.60;99.90;;;;;;4919023;29;20539;-77
2022/08/17 01:04:42;;;;;;;23.97;17.10;;;21.60;99.90;;;;;;4918941;29;20218;-73
2022/08/17 01:07:10;;;;;;;23.30;17.00;;;21.50;99.90;;;;;;4935717;29;20205;-73
2022/08/17 01:09:39;;;;;;;27.37;17.80;;;21.50;99.90;;;;;;4919489;29;20195;-74
2022/08/17 01:12:07;;;;;;;27.20;18.17;;;21.50;99.90;;;;;;4935605;29;20238;-73
2022/08/17 01:14:35;;;;;;;23.80;17.20;;;21.40;99.90;;;;;;4922665;29;20304;-74
2022/08/17 01:17:05;;;;;;;26.43;18.37;;;21.40;99.90;;;;;;4921190;29;20241;-73
2022/08/17 01:19:37;;;;;;;34.13;18.97;;;21.40;99.90;;;;;;4918270;29;20195;-73
2022/08/17 01:22:10;;;;;;;26.27;17.83;;;21.30;99.90;;;;;;4918441;29;20238;-72
2022/08/17 01:24:41;;;;;;;31.93;18.50;;;21.30;99.90;;;;;;4934614;29;20241;-73
2022/08/17 01:27:09;;;;;;;24.07;17.93;;;21.30;99.90;;;;;;4918391;29;20297;-73
2022/08/17 01:29:38;;;;;;;25.83;18.00;;;21.20;99.90;;;;;;4918345;29;20214;-73
2022/08/17 01:32:07;;;;;;;22.80;17.17;;;21.20;99.90;;;;;;4935008;29;20199;-73
2022/08/17 01:34:34;;;;;;;35.40;18.97;;;21.20;99.90;;;;;;4918529;29;20207;-71
2022/08/17 01:37:10;;;;;;;41.97;19.23;;;21.20;99.90;;;;;;4918354;29;20747;-72
2022/08/17 01:39:52;;;;;;;26.13;17.77;;;21.20;99.90;;;;;;4918608;29;20736;-71
2022/08/17 01:42:29;;;;;;;24.13;17.40;;;21.20;99.90;;;;;;4918370;29;20629;-72
2022/08/17 01:45:00;;;;;;;26.87;18.80;;;21.10;99.90;;;;;;4935952;29;20197;-72
2022/08/17 01:47:27;;;;;;;31.63;19.40;;;21.10;99.90;;;;;;4917956;29;20206;-73
2022/08/17 01:49:56;;;;;;;24.13;18.40;;;21.10;99.90;;;;;;4918426;29;20238;-73
2022/08/17 01:52:23;;;;;;;24.23;18.07;;;21.00;99.90;;;;;;4917977;29;20226;-72
2022/08/17 01:54:51;;;;;;;25.30;18.77;;;21.00;99.90;;;;;;4935044;29;20333;-73
2022/08/17 01:57:18;;;;;;;26.70;19.37;;;21.00;99.90;;;;;;4918202;29;20230;-73
2022/08/17 01:59:44;;;;;;;25.93;18.80;;;21.00;99.90;;;;;;4918226;29;20199;-72
2022/08/17 02:02:11;;;;;;;25.27;17.97;;;21.00;99.90;;;;;;4918085;29;20203;-73
2022/08/17 02:04:56;;;;;;;24.73;17.47;;;21.00;99.90;;;;;;4918283;29;20652;-73
2022/08/17 02:07:23;;;;;;;24.67;19.03;;;20.90;99.90;;;;;;4918208;29;20199;-73
2022/08/17 02:09:53;;;;;;;24.83;18.17;;;20.90;99.90;;;;;;4934970;29;20218;-73
2022/08/17 02:12:21;;;;;;;23.60;17.93;;;20.90;99.90;;;;;;4917785;29;20203;-72
2022/08/17 02:15:08;;;;;;;28.40;18.33;;;20.90;99.90;;;;;;4918020;29;20209;-72
2022/08/17 02:17:35;;;;;;;28.43;18.93;;;20.80;99.90;;;;;;4917772;29;20317;-72
2022/08/17 02:20:07;;;;;;;29.87;18.50;;;20.80;99.90;;;;;;4917961;29;20225;-71
2022/08/17 02:22:36;;;;;;;26.07;18.90;;;20.80;99.90;;;;;;4917495;29;20560;-71
2022/08/17 02:25:08;;;;;;;26.27;20.30;;;20.80;99.90;;;;;;4931807;29;20214;-73
2022/08/17 02:27:37;;;;;;;30.00;19.50;;;20.80;99.90;;;;;;4937095;29;20214;-72
2022/08/17 02:30:07;;;;;;;29.47;19.30;;;20.80;99.90;;;;;;4918833;29;20313;-74
2022/08/17 02:32:54;;;;;;;33.23;19.10;;;20.70;99.90;;;;;;4917479;29;20203;-74
2022/08/17 02:35:22;;;;;;;28.13;19.03;;;20.70;99.90;;;;;;4918339;29;20289;-74
2022/08/17 02:37:50;;;;;;;26.30;18.90;;;20.70;99.90;;;;;;4936923;29;20233;-73
2022/08/17 02:40:21;;;;;;;30.73;20.17;;;20.70;99.90;;;;;;4921340;29;20649;-73
2022/08/17 02:43:03;;;;;;;32.77;18.87;;;20.70;99.90;;;;;;4921060;29;20206;-72
2022/08/17 02:45:29;;;;;;;26.37;18.23;;;20.70;99.90;;;;;;4905340;29;20753;-72
2022/08/17 02:47:56;;;;;;;27.33;19.27;;;20.60;99.90;;;;;;4938352;29;20553;-73
2022/08/17 02:50:24;;;;;;;25.17;18.57;;;20.60;99.90;;;;;;4921157;29;20188;-73
2022/08/17 02:52:51;;;;;;;23.97;17.80;;;20.60;99.90;;;;;;4921187;29;20210;-73
2022/08/17 02:55:36;;;;;;;24.03;17.70;;;20.60;99.90;;;;;;4937971;29;20230;-73
2022/08/17 02:58:04;;;;;;;27.90;19.07;;;20.60;99.90;;;;;;4902052;29;20290;-72
2022/08/17 03:00:39;;;;;;;27.00;19.47;;;20.60;99.90;;;;;;4906344;29;20334;-72
2022/08/17 03:03:07;;;;;;;25.67;18.87;;;20.50;99.90;;;;;;4920858;29;20297;-73
2022/08/17 03:05:36;;;;;;;28.87;18.10;;;20.50;99.90;;;;;;4938202;29;20219;-73
2022/08/17 03:08:05;;;;;;;24.20;18.37;;;20.50;99.90;;;;;;4920927;29;20206;-73
2022/08/17 03:10:38;;;;;;;28.00;18.63;;;20.50;99.90;;;;;;4920778;29;20199;-73
2022/08/17 03:13:05;;;;;;;25.00;18.27;;;20.50;99.90;;;;;;4937407;29;20644;-73
2022/08/17 03:15:33;;;;;;;27.63;18.00;;;20.50;99.90;;;;;;4920787;29;20203;-73
2022/08/17 03:18:02;;;;;;;23.93;18.17;;;20.50;99.90;;;;;;4920417;29;20231;-73
2022/08/17 03:20:31;;;;;;;22.23;17.37;;;20.50;99.90;;;;;;4920522;29;20198;-73
2022/08/17 03:22:58;;;;;;;22.60;16.97;;;20.40;99.90;;;;;;4944816;29;20198;-73
2022/08/17 03:25:35;;;;;;;26.07;18.30;;;20.50;99.90;;;;;;4939358;29;20531;-73
2022/08/17 03:28:05;;;;;;;24.67;17.97;;;20.50;99.90;;;;;;4922884;29;20203;-73
2022/08/17 03:30:33;;;;;;;23.67;16.67;;;20.40;99.90;;;;;;4901757;29;20200;-73
2022/08/17 03:33:02;;;;;;;28.20;17.77;;;20.40;99.90;;;;;;4920205;29;20203;-73
2022/08/17 03:35:32;;;;;;;25.57;17.23;;;20.40;99.90;;;;;;4920147;29;20206;-73
2022/08/17 03:37:59;;;;;;;25.33;17.77;;;20.30;99.90;;;;;;4919992;29;20596;-73
2022/08/17 03:40:28;;;;;;;25.33;17.23;;;20.40;99.90;;;;;;4920335;29;20207;-73
2022/08/17 03:43:16;;;;;;;23.23;16.83;;;20.40;99.90;;;;;;4919854;29;20217;-73
2022/08/17 03:57:05;;;;;;;22.97;16.60;;;20.50;99.90;;;;;;4919650;29;20226;-74
2022/08/17 03:59:34;;;;;;;23.13;16.93;;;20.50;99.90;;;;;;4920498;29;20199;-73
2022/08/17 04:02:08;;;;;;;21.33;16.37;;;20.50;99.90;;;;;;4919830;29;20229;-73
2022/08/17 04:04:36;;;;;;;21.80;17.43;;;20.50;99.90;;;;;;4936802;29;20217;-73
2022/08/17 04:07:03;;;;;;;23.87;17.50;;;20.50;99.90;;;;;;4919965;29;20217;-73
2022/08/17 04:09:31;;;;;;;25.33;16.50;;;20.60;99.90;;;;;;4919266;29;20337;-73
2022/08/17 04:11:58;;;;;;;24.13;17.27;;;20.60;99.90;;;;;;4919386;29;20198;-72
2022/08/17 04:14:35;;;;;;;22.37;16.23;;;20.60;99.90;;;;;;4936435;29;20289;-73
2022/08/17 04:17:20;;;;;;;24.77;17.87;;;20.70;99.90;;;;;;4919580;29;20692;-73
2022/08/17 04:19:47;;;;;;;23.00;16.07;;;20.70;99.90;;;;;;4919331;29;20305;-73
2022/08/17 04:22:14;;;;;;;28.07;17.53;;;20.70;99.90;;;;;;4919000;29;20294;-73
2022/08/17 04:25:13;;;;;;;21.43;15.80;;;20.80;99.90;;;;;;4919073;29;20202;-73
2022/08/17 04:27:40;;;;;;;22.93;15.70;;;20.80;99.90;;;;;;4919301;29;20293;-73
2022/08/17 04:30:07;;;;;;;22.73;16.33;;;20.80;99.90;;;;;;4936286;29;20221;-73
2022/08/17 04:33:12;;;;;;;30.17;16.97;;;20.80;99.90;;;;;;4918752;29;20649;-72
2022/08/17 04:35:44;;;;;;;26.63;16.50;;;20.90;99.90;;;;;;4877541;29;20765;-72
2022/08/17 04:38:17;;;;;;;27.83;16.13;;;20.90;99.90;;;;;;4861382;29;20319;-72
2022/08/17 04:43:31;;;;;;;19.50;14.77;;;20.90;99.90;;;;;;4877261;29;20225;-72
2022/08/17 04:46:01;;;;;;;19.63;14.20;;;20.90;99.90;;;;;;4861979;29;20670;-73
2022/08/17 04:48:31;;;;;;;18.40;14.57;;;20.90;99.90;;;;;;4861060;29;20208;-73
2022/08/17 04:51:08;;;;;;;20.13;14.93;;;20.90;99.90;;;;;;4873386;29;20215;-73
2022/08/17 04:53:39;;;;;;;26.10;14.97;;;21.00;99.90;;;;;;4876787;29;20312;-72
2022/08/17 04:56:07;;;;;;;25.60;15.67;;;21.10;99.90;;;;;;4861845;29;20201;-72
2022/08/17 04:58:43;;;;;;;22.33;14.90;;;21.10;99.90;;;;;;4861646;29;20208;-72
2022/08/17 05:01:10;;;;;;;21.80;14.40;;;21.10;99.90;;;;;;4861032;29;20201;-72
2022/08/17 05:03:37;;;;;;;18.67;14.33;;;21.10;99.90;;;;;;4861371;29;20301;-73
2022/08/17 05:06:05;;;;;;;19.53;14.77;;;21.10;99.90;;;;;;4877219;29;20642;-73
2022/08/17 05:08:32;;;;;;;48.80;18.50;;;21.20;99.90;;;;;;4862416;29;20249;-73
2022/08/17 05:10:59;;;;;;;20.53;14.43;;;21.30;99.90;;;;;;4911238;29;20302;-73
2022/08/17 05:13:30;;;;;;;19.03;14.73;;;21.20;99.90;;;;;;4914213;29;20680;-72
2022/08/17 05:16:00;;;;;;;29.00;15.77;;;21.30;99.90;;;;;;4915239;29;20294;-73
2022/08/17 05:18:28;;;;;;;23.57;14.63;;;21.30;99.90;;;;;;4914306;29;20230;-72
2022/08/17 05:20:56;;;;;;;19.60;14.80;;;21.30;99.90;;;;;;4916512;29;20195;-72
2022/08/17 05:23:24;;;;;;;20.00;14.93;;;21.40;99.90;;;;;;4914344;29;20211;-73
2022/08/17 05:25:54;;;;;;;24.43;14.33;;;21.40;99.90;;;;;;4916002;29;20229;-72
2022/08/17 05:28:22;;;;;;;28.40;15.23;;;21.40;99.90;;;;;;4915246;29;20223;-73
2022/08/17 05:30:55;;;;;;;20.87;14.40;;;21.40;99.90;;;;;;4918631;29;20222;-73
2022/08/17 05:33:27;;;;;;;24.50;14.77;;;21.40;99.90;;;;;;4923363;29;20268;-72
2022/08/17 05:35:56;;;;;;;21.27;14.17;;;21.50;99.90;;;;;;4921837;29;20511;-72
2022/08/17 05:38:25;;;;;;;25.20;14.67;;;21.60;99.90;;;;;;4922435;29;20245;-72
2022/08/17 05:40:53;;;;;;;21.20;14.33;;;21.60;99.90;;;;;;4922423;29;20290;-73
2022/08/17 05:43:25;;;;;;;17.17;14.17;;;21.60;99.90;;;;;;4922201;29;20582;-71
2022/08/17 05:45:56;;;;;;;22.27;14.90;;;21.70;99.90;;;;;;4924225;29;20199;-72
2022/08/17 05:48:24;;;;;;;22.97;13.93;;;21.70;99.90;;;;;;4922602;29;20214;-72
2022/08/17 05:51:38;;;;;;;59.40;18.63;;;21.70;99.90;;;;;;4924474;29;20265;-72
2022/08/17 05:54:07;;;;;;;27.60;14.17;;;21.80;99.90;;;;;;4914476;29;20380;-70
2022/08/17 05:56:38;;;;;;;19.37;13.43;;;21.80;99.90;;;;;;4903272;29;20575;-72
2022/08/17 05:59:29;;;;;;;20.20;14.03;;;21.90;99.90;;;;;;4899707;29;20196;-72
2022/08/17 06:02:05;;;;;;;17.60;12.53;;;22.00;99.90;;;;;;4904791;29;20229;-72
2022/08/17 06:04:45;;;;;;;17.43;13.03;;;22.10;99.90;;;;;;4903233;29;20658;-72
2022/08/17 06:07:15;;;;;;;18.90;12.63;;;22.30;99.90;;;;;;4914894;29;20293;-72
2022/08/17 06:09:56;;;;;;;17.77;12.40;;;22.30;99.90;;;;;;4904903;29;20242;-72
2022/08/17 06:12:47;;;;;;;16.80;12.30;;;22.40;99.90;;;;;;4896597;29;20203;-73
2022/08/17 06:15:48;;;;;;;18.70;12.63;;;22.50;99.90;;;;;;4907535;29;20232;-71
2022/08/17 06:18:17;;;;;;;18.97;12.80;;;22.50;99.90;;;;;;4921113;29;20230;-71
2022/08/17 06:20:50;;;;;;;20.00;12.80;;;22.60;99.90;;;;;;4899207;29;20780;-72
2022/08/17 06:23:29;;;;;;;31.63;14.53;;;22.70;99.90;;;;;;4897812;29;20562;-71
2022/08/17 06:26:02;;;;;;;18.93;12.33;;;22.70;99.90;;;;;;4906177;29;20270;-71
2022/08/17 06:28:36;;;;;;;22.90;13.27;;;22.80;99.90;;;;;;4906672;29;20796;-72
2022/08/17 06:31:20;;;;;;;24.97;12.90;;;22.90;99.90;;;;;;4902122;29;20275;-73
2022/08/17 06:33:47;;;;;;;16.07;12.23;;;22.90;99.90;;;;;;4899230;29;20223;-72
2022/08/17 06:36:36;;;;;;;20.13;12.63;;;23.10;99.90;;;;;;4898118;29;20689;-71
2022/08/17 06:39:18;;;;;;;17.83;11.60;;;23.20;99.90;;;;;;4905309;29;20741;-71
2022/08/17 06:41:56;;;;;;;16.77;11.87;;;23.40;99.90;;;;;;4898683;29;20689;-73
2022/08/17 06:44:34;;;;;;;16.83;11.23;;;23.50;99.90;;;;;;4898816;29;20664;-72
2022/08/17 06:47:35;;;;;;;14.27;11.80;;;23.60;99.90;;;;;;4880528;29;20679;-73
2022/08/17 06:50:26;;;;;;;21.47;12.60;;;23.70;99.90;;;;;;4890474;29;20204;-72
2022/08/17 06:53:10;;;;;;;17.70;11.43;;;23.70;99.90;;;;;;4896995;29;20694;-74
2022/08/17 06:55:48;;;;;;;18.00;11.57;;;23.70;99.90;;;;;;4904326;29;20642;-71
2022/08/17 06:58:21;;;;;;;17.30;11.60;;;23.70;99.90;;;;;;4898192;29;20234;-73
2022/08/17 07:00:51;;;;;;;16.70;11.88;;;23.80;99.90;;;;;;4897646;29;20768;-72
2022/08/17 07:03:36;;;;;;;37.07;12.37;;;23.90;99.90;;;;;;4897622;29;20643;-72
2022/08/17 07:06:14;;;;;;;24.60;12.83;;;24.10;99.90;;;;;;4897594;29;20298;-72
2022/08/17 07:09:24;;;;;;;27.10;13.13;;;24.20;99.90;;;;;;4897885;29;20196;-71
2022/08/17 07:12:13;;;;;;;17.80;12.20;;;24.20;99.90;;;;;;4875548;29;20224;-69
2022/08/17 07:14:56;;;;;;;18.10;12.90;;;24.20;99.90;;;;;;4898098;29;20199;-71
2022/08/17 07:17:25;;;;;;;15.17;11.50;;;24.10;99.90;;;;;;4903613;29;20206;-71
2022/08/17 07:20:19;;;;;;;32.03;13.57;;;24.10;99.90;;;;;;4898466;29;20209;-72
2022/08/17 07:22:56;;;;;;;15.70;11.80;;;24.10;99.90;;;;;;4897353;29;20220;-70
2022/08/17 07:25:29;;;;;;;16.08;12.02;;;24.30;99.90;;;;;;4901147;29;20252;-71
2022/08/17 07:27:59;;;;;;;15.23;10.85;;;24.60;99.90;;;;;;4902588;29;20250;-70
2022/08/17 07:30:36;;;;;;;15.77;10.63;;;24.80;99.90;;;;;;4903583;29;20195;-71
2022/08/17 07:33:19;;;;;;;16.45;10.73;;;24.90;99.90;;;;;;4906848;29;20840;-72
2022/08/17 07:35:48;;;;;;;15.57;10.68;;;25.10;99.90;;;;;;4896666;29;20200;-73
2022/08/17 07:38:18;;;;;;;13.95;10.68;;;25.20;99.90;;;;;;4894971;29;20303;-72
2022/08/17 07:41:00;;;;;;;15.88;10.90;;;25.30;99.90;;;;;;4894585;29;20554;-72
2022/08/17 07:43:40;;;;;;;16.77;10.05;;;25.40;99.90;;;;;;4895468;29;20578;-72
2022/08/17 07:49:23;;;;;;;14.50;9.57;;;25.60;99.90;;;;;;4902215;29;20656;-73
2022/08/17 07:51:49;;;;;;;13.93;10.27;;;25.50;99.90;;;;;;4892689;29;20233;-70
2022/08/17 07:54:27;;;;;;;15.23;9.23;;;25.60;99.90;;;;;;4918915;29;20628;-71
2022/08/17 07:56:57;;;;;;;12.77;9.45;;;25.60;99.90;;;;;;4926452;29;20217;-72
2022/08/17 07:59:35;;;;;;;19.08;10.18;;;25.70;99.90;;;;;;4919520;29;20690;-73
2022/08/17 08:02:15;;;;;;;13.07;10.10;;;25.80;99.90;;;;;;4919641;29;20293;-75
2022/08/17 08:05:04;;;;;;;13.20;9.13;;;26.00;99.90;;;;;;4920572;29;20198;-71
2022/08/17 08:07:38;;;;;;;13.90;10.13;;;25.90;99.90;;;;;;4918507;29;20199;-72
2022/08/17 08:10:34;;;;;;;13.65;9.75;;;25.90;99.90;;;;;;4923462;29;20272;-71
2022/08/17 08:13:10;;;;;;;12.88;9.40;;;26.30;99.90;;;;;;4919347;29;20210;-71
2022/08/17 08:15:55;;;;;;;14.10;8.80;;;27.60;99.90;;;;;;4918897;29;20263;-73
2022/08/17 08:18:33;;;;;;;14.55;8.98;;;28.80;99.90;;;;;;4910052;29;20316;-73
2022/08/17 08:21:57;;;;;;;11.93;8.55;;;29.40;99.90;;;;;;4914848;29;20203;-71
2022/08/17 08:24:40;;;;;;;12.80;8.48;;;28.90;99.90;;;;;;4922067;29;20289;-74
2022/08/17 08:27:32;;;;;;;11.00;8.50;;;28.40;99.90;;;;;;4918708;29;20286;-73
2022/08/17 08:30:10;;;;;;;17.00;9.20;;;29.00;99.90;;;;;;4919110;29;20306;-71
2022/08/17 08:32:53;;;;;;;12.82;8.55;;;30.10;99.90;;;;;;4918976;29;20206;-72
2022/08/17 08:35:37;;;;;;;11.25;8.07;;;30.80;99.90;;;;;;4918885;29;20205;-71
2022/08/17 08:38:25;;;;;;;9.82;7.70;;;30.90;99.90;;;;;;4936143;29;20641;-73
2022/08/17 08:41:22;;;;;;;10.02;7.93;;;30.70;99.90;;;;;;4918815;29;20195;-73
2022/08/17 08:44:11;;;;;;;9.55;7.90;;;30.90;99.90;;;;;;4919309;29;20295;-74
2022/08/17 08:47:05;;;;;;;10.27;8.07;;;30.20;99.90;;;;;;4918961;29;20302;-73
2022/08/17 08:49:58;;;;;;;12.05;7.68;;;30.20;99.90;;;;;;4918686;29;20302;-74
2022/08/17 08:52:56;;;;;;;9.88;7.47;;;30.60;99.90;;;;;;4918706;29;20202;-71
2022/08/17 08:55:53;;;;;;;9.27;7.60;;;31.30;99.90;;;;;;4918398;29;20678;-73
2022/08/17 08:58:34;;;;;;;14.50;7.82;;;32.10;99.90;;;;;;4918989;29;20722;-74
2022/08/17 09:01:32;;;;;;;13.30;7.20;;;32.40;99.90;;;;;;4936158;29;20665;-75
2022/08/17 09:04:21;;;;;;;12.02;6.70;;;32.40;99.90;;;;;;4902627;29;20199;-74
2022/08/17 09:06:57;;;;;;;20.83;9.02;;;32.50;99.90;;;;;;4918698;29;20633;-76
2022/08/17 09:09:48;;;;;;;12.43;8.05;;;32.50;99.90;;;;;;4918639;29;20294;-74
2022/08/17 09:12:50;;;;;;;10.40;6.90;;;32.30;99.90;;;;;;4918803;29;20214;-74
2022/08/17 09:15:24;;;;;;;10.07;7.35;;;32.80;99.90;;;;;;4914374;29;20207;-74
2022/08/17 09:18:13;;;;;;;10.05;7.18;;;33.10;99.90;;;;;;4918829;29;20551;-74
2022/08/17 09:21:27;;;;;;;9.27;7.00;;;33.30;99.90;;;;;;4917950;29;20209;-72
2022/08/17 09:24:13;;;;;;;11.32;7.20;;;33.90;99.90;;;;;;4918514;29;20207;-74
2022/08/17 09:27:10;;;;;;;10.48;7.05;;;34.20;99.90;;;;;;4918045;29;20210;-76
2022/08/17 09:29:43;;;;;;;11.52;7.22;;;34.30;99.90;;;;;;4918194;29;20223;-77
2022/08/17 09:32:30;;;;;;;8.43;7.20;;;33.80;99.90;;;;;;4918283;29;20215;-74
2022/08/17 09:35:02;;;;;;;9.75;7.47;;;33.20;99.90;;;;;;4918580;29;20294;-73
2022/08/17 09:37:46;;;;;;;10.82;7.40;;;32.50;99.90;;;;;;4918115;29;20673;-73
2022/08/17 09:40:24;;;;;;;10.48;7.50;;;32.20;99.90;;;;;;4918267;29;20191;-74
2022/08/17 09:43:05;;;;;;;10.05;7.72;;;31.90;99.90;;;;;;4918316;29;20656;-76
2022/08/17 09:45:39;;;;;;;11.95;7.43;;;31.80;99.90;;;;;;4919125;29;20226;-75
2022/08/17 09:48:24;;;;;;;9.98;7.53;;;31.60;99.90;;;;;;4939107;29;20218;-78
2022/08/17 09:51:05;;;;;;;10.18;7.40;;;31.50;99.90;;;;;;4921850;29;20202;-77
2022/08/17 09:53:36;;;;;;;10.00;7.72;;;31.10;99.90;;;;;;4922043;29;20321;-75
2022/08/17 09:56:15;;;;;;;10.00;7.65;;;30.90;99.90;;;;;;4922140;29;20289;-73
2022/08/17 09:58:55;;;;;;;9.70;8.02;;;30.80;99.90;;;;;;4921794;29;20317;-74
2022/08/17 10:01:34;;;;;;;11.70;7.80;;;30.60;99.90;;;;;;4921881;29;20246;-75
2022/08/17 10:04:04;;;;;;;12.25;8.15;;;30.60;99.90;;;;;;4921407;29;20202;-76
2022/08/17 10:07:00;;;;;;;16.55;8.48;;;30.80;99.90;;;;;;4921752;29;20202;-77
2022/08/17 10:09:59;;;;;;;14.27;8.00;;;31.20;99.90;;;;;;4903146;29;20206;-79
2022/08/17 10:12:29;;;;;;;9.77;7.75;;;31.70;99.90;;;;;;4922088;29;20209;-76
2022/08/17 10:15:15;;;;;;;10.82;7.65;;;31.70;99.90;;;;;;4938859;29;20278;-78
2022/08/17 10:18:02;;;;;;;9.90;7.88;;;31.30;99.90;;;;;;4938666;29;20218;-75
2022/08/17 10:20:40;;;;;;;16.02;8.75;;;31.20;99.90;;;;;;4921231;29;20207;-79
2022/08/17 10:26:13;;;;;;;10.07;7.55;;;30.80;99.90;;;;;;4921804;29;20609;-83
2022/08/17 10:28:57;;;;;;;14.18;8.52;;;30.70;99.90;;;;;;4921634;29;20297;-75
2022/08/17 10:31:38;;;;;;;12.48;8.07;;;30.90;99.90;;;;;;4921467;29;20195;-74
2022/08/17 10:34:11;;;;;;;9.38;7.55;;;31.30;99.90;;;;;;4921205;29;20195;-75
2022/08/17 10:37:08;;;;;;;12.25;8.10;;;31.90;99.90;;;;;;4921188;29;20207;-73
2022/08/17 10:39:56;;;;;;;12.40;8.18;;;32.40;99.90;;;;;;4938141;29;20225;-73
2022/08/17 10:42:31;;;;;;;16.92;8.20;;;32.80;99.90;;;;;;4921029;29;20202;-79
2022/08/17 10:45:14;;;;;;;11.20;7.50;;;33.10;99.90;;;;;;4921364;29;20209;-80
2022/08/17 10:48:19;;;;;;;11.15;6.88;;;33.70;99.90;;;;;;4921153;29;20213;-81
2022/08/17 10:50:58;;;;;;;13.02;8.20;;;34.10;99.90;;;;;;4929461;29;20198;-75
2022/08/17 10:53:31;;;;;;;10.25;7.22;;;34.50;99.90;;;;;;4936353;29;20246;-77
2022/08/17 10:56:14;;;;;;;10.75;7.65;;;34.60;99.90;;;;;;4919642;29;20603;-79
2022/08/17 10:58:49;;;;;;;14.13;7.55;;;34.80;99.90;;;;;;4926668;29;21577;-75
2022/08/17 11:01:16;;;;;;;14.07;7.70;;;35.10;99.90;;;;;;4928850;29;20297;-83
2022/08/17 11:04:26;;;;;;;11.02;7.57;;;34.70;99.90;;;;;;4925398;29;20226;-81
2022/08/17 11:07:30;;;;;;;10.30;7.18;;;34.50;99.90;;;;;;4828967;29;20250;-80
2022/08/17 11:10:09;;;;;;;12.52;6.80;;;34.40;99.90;;;;;;4825951;29;20206;-74
2022/08/17 11:13:05;;;;;;;11.98;6.88;;;34.70;99.90;;;;;;4831941;29;20202;-88
2022/08/17 11:16:22;;;;;;;9.18;6.82;;;35.00;99.90;;;;;;4825175;29;20264;-84
2022/08/17 11:19:38;;;;;;;10.75;7.05;;;35.00;98.90;;;;;;4825543;29;20736;-82
2022/08/17 11:22:56;;;;;;;11.35;6.90;;;34.90;98.50;;;;;;4840557;29;20216;-82
2022/08/17 11:26:25;;;;;;;8.65;6.68;;;35.00;97.90;;;;;;4837122;29;20243;-84
2022/08/17 11:52:03;;;;;;;12.55;6.57;;;36.10;94.30;;;;;;4935472;29;20206;-80
2022/08/17 11:54:45;;;;;;;13.85;6.55;;;36.50;97.90;;;;;;4939267;29;20198;-85
2022/08/17 11:57:24;;;;;;;9.32;6.72;;;36.40;96.40;;;;;;4940080;23;20670;-84
2022/08/17 12:00:10;;;;;;;8.98;6.80;;;36.20;96.30;;;;;;4915130;29;20301;-83
2022/08/17 12:02:47;;;;;;;9.13;6.50;;;36.40;95.80;;;;;;4930818;23;20242;-84
2022/08/17 12:08:40;;;;;;;9.43;6.57;;;36.20;95.10;;;;;;4914496;29;20219;-79
2022/08/17 12:11:46;;;;;;;11.88;6.05;;;36.50;97.00;;;;;;4931582;29;20602;-82
2022/08/17 12:15:06;;;;;;;10.23;6.68;;;36.70;93.80;;;;;;4925745;29;20203;-84
2022/08/17 12:17:38;;;;;;;9.90;6.32;;;36.40;94.10;;;;;;4901367;29;20212;-83
2022/08/17 12:20:31;;;;;;;9.88;6.80;;;36.30;94.30;;;;;;4910964;29;20257;-79
2022/08/17 12:23:11;;;;;;;8.13;6.20;;;36.00;92.80;;;;;;4918481;29;20298;-80
2022/08/17 12:26:01;;;;;;;10.18;6.65;;;36.00;93.80;;;;;;4899675;29;20203;-77
2022/08/17 12:28:33;;;;;;;11.48;6.50;;;36.00;93.00;;;;;;4900692;29;20223;-85
2022/08/17 12:31:06;;;;;;;18.35;6.70;;;36.20;93.30;;;;;;4915242;29;20293;-83
2022/08/17 12:33:50;;;;;;;13.73;6.95;;;36.80;93.20;;;;;;4914394;29;20597;-82
2022/08/17 12:36:27;;;;;;;9.55;6.40;;;37.10;91.90;;;;;;4958401;23;20234;-81
2022/08/17 12:39:22;;;;;;;11.18;6.88;;;37.10;91.90;;;;;;4935961;29;20304;-84
2022/08/17 12:41:58;;;;;;;11.18;6.43;;;36.90;91.90;;;;;;4941861;29;20369;-83
2022/08/17 12:44:31;;;;;;;9.52;6.50;;;36.80;91.30;;;;;;4954061;29;20205;-78
2022/08/17 12:47:20;;;;;;;10.15;6.35;;;36.10;92.50;;;;;;4949617;29;20253;-76
2022/08/17 12:49:53;;;;;;;9.82;6.50;;;35.70;94.00;;;;;;4944113;29;20223;-83
2022/08/17 12:52:31;;;;;;;11.30;7.25;;;35.40;93.90;;;;;;4942883;29;20199;-83
2022/08/17 12:55:37;;;;;;;12.15;6.68;;;34.70;94.50;;;;;;4928931;29;20186;-79
2022/08/17 12:58:11;;;;;;;15.40;7.05;;;34.20;95.60;;;;;;4940790;29;20207;-81
2022/08/17 13:00:47;;;;;;;11.50;7.60;;;34.50;95.40;;;;;;4942603;29;20194;-84
2022/08/17 13:03:30;;;;;;;12.13;7.25;;;34.40;94.30;;;;;;4944650;29;20204;-82
2022/08/17 13:06:11;;;;;;;11.32;7.00;;;34.30;94.80;;;;;;4943644;29;20305;-82
2022/08/17 13:08:45;;;;;;;10.75;7.40;;;33.60;95.40;;;;;;4942272;29;20211;-85
2022/08/17 13:11:18;;;;;;;16.67;7.18;;;33.60;96.60;;;;;;4941339;29;20232;-83
2022/08/17 13:13:49;;;;;;;9.30;7.00;;;33.80;96.10;;;;;;4943236;29;20300;-82
2022/08/17 13:16:20;;;;;;;16.00;7.63;;;33.90;94.30;;;;;;4942486;29;20191;-81
2022/08/17 13:18:51;;;;;;;10.60;6.70;;;34.30;95.50;;;;;;4943110;29;20210;-81
2022/08/17 13:21:29;;;;;;;13.88;6.93;;;34.90;94.70;;;;;;4954479;28;20218;-84
2022/08/17 13:24:00;;;;;;;13.75;6.78;;;35.30;95.60;;;;;;4942050;29;20578;-81
2022/08/17 13:26:47;;;;;;;9.35;6.82;;;35.40;94.20;;;;;;4929454;29;20608;-82
2022/08/17 13:29:35;;;;;;;13.43;7.03;;;35.00;92.80;;;;;;4937156;29;20283;-80
2022/08/17 13:32:05;;;;;;;13.93;6.90;;;34.50;94.50;;;;;;4915395;29;20298;-80
2022/08/17 13:34:55;;;;;;;12.77;6.43;;;34.40;94.70;;;;;;4923521;29;20194;-81
2022/08/17 13:38:01;;;;;;;12.73;7.10;;;33.90;94.80;;;;;;4927610;29;20646;-83
2022/08/17 13:40:41;;;;;;;9.18;6.78;;;33.40;95.70;;;;;;4926931;29;20218;-82
2022/08/17 13:43:27;;;;;;;13.10;7.10;;;33.60;95.10;;;;;;4924806;29;20253;-84
2022/08/17 13:46:07;;;;;;;13.32;7.55;;;33.60;96.10;;;;;;4929051;29;20211;-83
2022/08/17 13:48:34;;;;;;;17.20;7.50;;;33.40;95.00;;;;;;4925760;29;20616;-79
2022/08/17 13:51:12;;;;;;;14.00;7.70;;;33.10;95.80;;;;;;4948103;23;20232;-83
2022/08/17 13:53:39;;;;;;;9.43;7.13;;;32.70;96.50;;;;;;4941651;29;20727;-82
2022/08/17 13:56:22;;;;;;;9.18;7.30;;;32.40;96.60;;;;;;4937421;28;20640;-77
2022/08/17 13:59:24;;;;;;;11.07;7.20;;;32.30;96.60;;;;;;4945366;28;20218;-82
2022/08/17 14:02:13;;;;;;;11.00;7.40;;;32.50;97.80;;;;;;4943135;28;20539;-83
2022/08/17 14:04:41;;;;;;;10.90;7.40;;;32.90;97.30;;;;;;4952904;28;20333;-84
2022/08/17 14:07:11;;;;;;;18.95;8.73;;;32.90;96.00;;;;;;4944333;28;20735;-83
2022/08/17 14:09:53;;;;;;;15.07;7.80;;;33.00;96.90;;;;;;4928489;28;20202;-75
2022/08/17 14:12:25;;;;;;;10.75;7.20;;;33.00;95.40;;;;;;4937314;29;20767;-74
2022/08/17 14:14:55;;;;;;;14.43;7.07;;;33.40;95.00;;;;;;4937252;29;20300;-74